createdAt,value
2019-06-26T00:01:28.145Z,9.03
2019-06-26T00:03:53.132Z,8.80
2019-06-26T00:06:18.156Z,8.95
2019-06-26T00:08:43.259Z,8.70
2019-06-26T00:11:08.293Z,8.85
2019-06-26T00:13:33.272Z,8.75
2019-06-26T00:15:58.294Z,8.65
2019-06-26T00:18:23.431Z,8.63
2019-06-26T00:20:48.395Z,8.25
2019-06-26T00:23:13.491Z,8.83
2019-06-26T00:25:38.531Z,8.63
2019-06-26T00:28:03.596Z,8.58
2019-06-26T00:30:28.583Z,8.13
2019-06-26T00:32:53.617Z,8.83
2019-06-26T00:35:18.695Z,8.98
2019-06-26T00:37:43.742Z,9.53
2019-06-26T00:40:10.000Z,8.75
2019-06-26T00:42:35.117Z,8.98
2019-06-26T00:45:00.096Z,8.78
2019-06-26T00:47:25.155Z,9.08
2019-06-26T00:49:50.154Z,9.30
2019-06-26T00:52:15.132Z,9.40
2019-06-26T00:54:40.096Z,9.18
2019-06-26T00:57:05.161Z,8.78
2019-06-26T00:59:30.374Z,8.43
2019-06-26T01:01:55.367Z,9.25
2019-06-26T01:04:25.219Z,8.88
2019-06-26T01:06:50.210Z,9.25
2019-06-26T01:09:15.663Z,9.43
2019-06-26T01:11:40.755Z,9.50
2019-06-26T01:14:05.858Z,9.58
2019-06-26T01:16:30.891Z,8.50
2019-06-26T01:18:55.867Z,8.23
2019-06-26T01:21:20.906Z,9.65
2019-06-26T01:23:46.011Z,8.88
2019-06-26T01:26:11.052Z,10.05
2019-06-26T01:28:35.962Z,8.70
2019-06-26T01:31:00.983Z,9.15
2019-06-26T01:33:25.963Z,8.75
2019-06-26T01:35:50.927Z,8.53
2019-06-26T01:38:15.844Z,9.08
2019-06-26T01:40:40.889Z,9.90
2019-06-26T01:43:05.967Z,8.05
2019-06-26T01:45:30.927Z,8.93
2019-06-26T01:47:56.951Z,8.55
2019-06-26T01:50:21.983Z,9.40
2019-06-26T01:52:46.899Z,8.70
2019-06-26T01:55:12.115Z,9.33
2019-06-26T01:57:37.186Z,9.03
2019-06-26T02:00:02.277Z,9.13
2019-06-26T02:02:28.818Z,9.00
2019-06-26T02:04:53.911Z,9.33
2019-06-26T02:07:19.248Z,9.17
2019-06-26T02:09:45.184Z,9.10
2019-06-26T02:12:10.182Z,9.70
2019-06-26T02:14:35.158Z,9.35
2019-06-26T02:17:00.200Z,9.60
2019-06-26T02:19:25.175Z,8.67
2019-06-26T02:21:50.142Z,8.90
2019-06-26T02:24:15.294Z,9.63
2019-06-26T02:26:40.247Z,10.27
2019-06-26T02:29:05.239Z,9.50
2019-06-26T02:31:30.276Z,9.70
2019-06-26T02:33:55.336Z,9.23
2019-06-26T02:36:20.364Z,9.63
2019-06-26T02:38:45.271Z,9.87
2019-06-26T02:41:10.319Z,9.77
2019-06-26T02:43:35.391Z,9.87
2019-06-26T02:46:00.427Z,9.73
2019-06-26T02:48:25.408Z,9.17
2019-06-26T02:50:50.451Z,9.43
2019-06-26T02:53:15.506Z,8.70
2019-06-26T02:55:40.394Z,9.67
2019-06-26T02:58:05.468Z,9.60
2019-06-26T03:00:30.503Z,9.83
2019-06-26T03:02:55.567Z,8.77
2019-06-26T03:05:20.459Z,9.33
2019-06-26T03:07:45.429Z,9.20
2019-06-26T03:10:11.114Z,8.93
2019-06-26T03:12:36.073Z,9.83
2019-06-26T03:15:08.883Z,9.63
2019-06-26T03:17:27.722Z,10.00
2019-06-26T03:19:52.774Z,9.23
2019-06-26T03:22:17.855Z,9.93
2019-06-26T03:24:42.890Z,9.70
2019-06-26T03:27:09.178Z,10.10
2019-06-26T03:29:34.387Z,11.00
2019-06-26T03:31:59.429Z,9.60
2019-06-26T03:34:24.487Z,9.20
2019-06-26T03:36:49.482Z,11.67
2019-06-26T03:39:14.564Z,10.50
2019-06-26T03:41:39.536Z,10.57
2019-06-26T03:44:04.597Z,10.10
2019-06-26T03:46:29.669Z,10.37
2019-06-26T03:48:54.792Z,10.23
2019-06-26T03:51:19.838Z,10.20
2019-06-26T03:53:44.816Z,11.00
2019-06-26T03:56:09.900Z,11.03
2019-06-26T03:58:34.916Z,11.10
2019-06-26T04:00:59.915Z,10.23
2019-06-26T04:03:24.807Z,10.80
2019-06-26T04:05:49.867Z,10.63
2019-06-26T04:08:14.832Z,10.20
2019-06-26T04:10:43.065Z,11.60
2019-06-26T04:13:06.413Z,11.10
2019-06-26T04:15:41.263Z,10.83
2019-06-26T04:17:58.230Z,10.13
2019-06-26T04:20:23.275Z,11.43
2019-06-26T04:22:48.334Z,11.68
2019-06-26T04:25:13.460Z,11.05
2019-06-26T04:27:38.498Z,11.57
2019-06-26T04:30:04.968Z,10.95
2019-06-26T04:32:29.856Z,10.68
2019-06-26T04:34:54.843Z,10.65
2019-06-26T04:37:19.881Z,10.28
2019-06-26T04:39:44.895Z,10.90
2019-06-26T04:42:09.946Z,10.80
2019-06-26T04:44:35.194Z,10.78
2019-06-26T04:47:00.210Z,11.50
2019-06-26T04:49:25.099Z,11.40
2019-06-26T04:51:50.082Z,11.05
2019-06-26T04:54:15.946Z,11.30
2019-06-26T04:56:40.860Z,11.70
2019-06-26T04:59:05.825Z,11.60
2019-06-26T05:01:30.815Z,11.68
2019-06-26T05:03:55.790Z,11.85
2019-06-26T05:06:20.863Z,12.07
2019-06-26T05:08:45.942Z,13.55
2019-06-26T05:11:12.751Z,13.88
2019-06-26T05:13:37.562Z,12.90
2019-06-26T05:16:14.155Z,13.30
2019-06-26T05:18:29.311Z,14.28
2019-06-26T05:20:54.353Z,14.13
2019-06-26T05:23:19.330Z,14.07
2019-06-26T05:25:44.541Z,15.05
2019-06-26T05:28:09.570Z,15.25
2019-06-26T05:30:34.648Z,15.50
2019-06-26T05:32:59.601Z,15.85
2019-06-26T05:35:24.650Z,15.78
2019-06-26T05:37:49.717Z,17.98
2019-06-26T05:40:15.158Z,19.10
2019-06-26T05:42:40.234Z,15.53
2019-06-26T05:45:05.726Z,15.30
2019-06-26T05:47:30.835Z,17.42
2019-06-26T05:49:56.785Z,17.57
2019-06-26T05:52:21.743Z,17.30
2019-06-26T05:54:46.786Z,17.98
2019-06-26T05:57:11.779Z,16.85
2019-06-26T05:59:36.678Z,16.48
2019-06-26T06:02:01.738Z,16.45
2019-06-26T06:04:26.778Z,17.40
2019-06-26T06:06:51.862Z,15.90
2019-06-26T06:09:16.889Z,15.83
2019-06-26T06:11:41.992Z,14.65
2019-06-26T06:14:06.997Z,15.03
2019-06-26T06:16:46.456Z,14.87
2019-06-26T06:18:58.732Z,14.80
2019-06-26T06:21:23.771Z,14.55
2019-06-26T06:23:48.835Z,14.65
2019-06-26T06:26:13.947Z,13.18
2019-06-26T06:28:38.863Z,14.05
2019-06-26T06:31:03.903Z,16.50
2019-06-26T06:33:28.897Z,14.53
2019-06-26T06:35:54.130Z,13.05
2019-06-26T06:38:19.033Z,13.43
2019-06-26T06:40:44.062Z,13.05
2019-06-26T06:43:08.978Z,12.70
2019-06-26T06:45:34.014Z,13.60
2019-06-26T06:47:59.016Z,12.65
2019-06-26T06:50:24.083Z,12.78
2019-06-26T06:52:48.973Z,12.10
2019-06-26T06:55:14.218Z,12.65
2019-06-26T06:57:39.495Z,12.47
2019-06-26T07:00:05.674Z,11.63
2019-06-26T07:02:30.891Z,11.83
2019-06-26T07:04:55.822Z,11.45
2019-06-26T07:07:21.049Z,12.13
2019-06-26T07:09:46.408Z,11.30
2019-06-26T07:12:11.611Z,12.05
2019-06-26T07:14:37.074Z,10.90
2019-06-26T07:17:02.063Z,10.70
2019-06-26T07:19:28.245Z,10.95
2019-06-26T07:21:53.583Z,10.60
2019-06-26T07:24:18.635Z,11.40
2019-06-26T07:26:46.451Z,10.28
2019-06-26T07:29:11.940Z,9.95
2019-06-26T07:31:38.718Z,8.68
2019-06-26T07:34:04.051Z,8.28
2019-06-26T07:36:29.055Z,8.35
2019-06-26T07:38:54.328Z,8.15
2019-06-26T07:41:19.363Z,8.53
2019-06-26T07:43:44.340Z,8.00
2019-06-26T07:46:09.350Z,8.50
2019-06-26T07:48:34.434Z,8.00
2019-06-26T07:50:59.479Z,8.03
2019-06-26T07:53:24.779Z,8.40
2019-06-26T07:55:49.825Z,7.95
2019-06-26T07:58:15.078Z,8.30
2019-06-26T08:00:40.882Z,7.67
2019-06-26T08:03:06.450Z,8.30
2019-06-26T08:05:31.528Z,8.10
2019-06-26T08:07:56.734Z,8.13
2019-06-26T08:10:22.772Z,8.58
2019-06-26T08:12:48.007Z,7.83
2019-06-26T08:15:13.616Z,8.33
2019-06-26T08:17:38.588Z,8.68
2019-06-26T08:20:03.911Z,8.43
2019-06-26T08:22:30.175Z,8.23
2019-06-26T08:24:55.167Z,7.60
2019-06-26T08:27:20.259Z,7.85
2019-06-26T08:29:45.254Z,8.45
2019-06-26T08:32:10.490Z,7.60
2019-06-26T08:34:35.470Z,7.90
2019-06-26T08:37:00.437Z,8.08
2019-06-26T08:39:25.750Z,8.80
2019-06-26T08:41:51.312Z,7.58
2019-06-26T08:44:16.368Z,7.28
2019-06-26T08:46:41.626Z,7.30
2019-06-26T08:49:21.089Z,7.50
2019-06-26T08:51:33.350Z,8.10
2019-06-26T08:53:58.370Z,7.20
2019-06-26T08:56:26.418Z,7.35
2019-06-26T08:58:51.718Z,7.37
2019-06-26T09:01:16.715Z,7.35
2019-06-26T09:03:42.236Z,7.65
2019-06-26T09:06:09.111Z,7.97
2019-06-26T09:08:34.039Z,7.78
2019-06-26T09:10:58.991Z,7.83
2019-06-26T09:13:23.963Z,7.80
2019-06-26T09:15:50.057Z,7.10
2019-06-26T09:18:15.189Z,7.72
2019-06-26T09:20:41.107Z,7.67
2019-06-26T09:23:06.192Z,6.65
2019-06-26T09:25:31.448Z,6.80
2019-06-26T09:27:56.402Z,7.20
2019-06-26T09:30:22.839Z,7.10
2019-06-26T09:32:47.802Z,6.87
2019-06-26T09:35:13.123Z,7.35
2019-06-26T09:37:38.208Z,6.67
2019-06-26T09:40:03.155Z,5.87
2019-06-26T09:42:28.755Z,5.97
2019-06-26T09:44:53.710Z,5.95
2019-06-26T09:47:18.675Z,5.90
2019-06-26T09:49:43.663Z,5.65
2019-06-26T09:52:09.118Z,6.03
2019-06-26T09:54:34.030Z,7.28
2019-06-26T09:56:58.918Z,6.97
2019-06-26T09:59:24.507Z,6.47
2019-06-26T10:01:49.640Z,6.83
2019-06-26T10:04:15.114Z,6.08
2019-06-26T10:06:40.087Z,6.12
2019-06-26T10:09:07.030Z,5.80
2019-06-26T10:11:32.004Z,6.60
2019-06-26T10:13:56.970Z,6.67
2019-06-26T10:16:23.271Z,6.08
2019-06-26T10:18:48.494Z,6.87
2019-06-26T10:21:14.089Z,6.55
2019-06-26T10:23:39.118Z,6.25
2019-06-26T10:26:04.272Z,6.15
2019-06-26T10:28:29.428Z,5.60
2019-06-26T10:30:56.510Z,6.12
2019-06-26T10:33:21.623Z,6.37
2019-06-26T10:35:46.678Z,5.95
2019-06-26T10:38:11.822Z,6.03
2019-06-26T10:40:36.857Z,6.55
2019-06-26T10:43:01.923Z,6.28
2019-06-26T10:45:26.954Z,6.62
2019-06-26T10:47:51.872Z,6.42
2019-06-26T10:50:17.292Z,6.10
2019-06-26T10:52:42.327Z,6.35
2019-06-26T10:55:07.589Z,5.75
2019-06-26T10:57:32.635Z,6.12
2019-06-26T10:59:58.647Z,6.37
2019-06-26T11:02:23.694Z,6.37
2019-06-26T11:04:48.647Z,6.20
2019-06-26T11:07:13.613Z,5.80
2019-06-26T11:09:38.595Z,6.15
2019-06-26T11:12:03.665Z,6.33
2019-06-26T11:14:28.656Z,6.30
2019-06-26T11:16:54.548Z,6.25
2019-06-26T11:19:19.596Z,6.35
2019-06-26T11:21:44.656Z,5.70
2019-06-26T11:24:09.639Z,5.72
2019-06-26T11:26:35.680Z,5.85
2019-06-26T11:29:00.678Z,5.00
2019-06-26T11:31:25.666Z,5.08
2019-06-26T11:33:50.823Z,4.90
2019-06-26T11:36:16.041Z,5.58
2019-06-26T11:38:41.087Z,4.90
2019-06-26T11:41:06.118Z,5.08
2019-06-26T11:43:31.203Z,5.22
2019-06-26T11:45:56.168Z,5.08
2019-06-26T11:48:21.145Z,5.20
2019-06-26T11:50:46.022Z,4.75
2019-06-26T11:53:11.107Z,5.33
2019-06-26T11:55:36.145Z,5.15
2019-06-26T11:58:15.621Z,5.20
2019-06-26T12:00:47.849Z,5.12
2019-06-26T12:03:24.305Z,5.55
2019-06-26T12:06:18.315Z,5.62
2019-06-26T12:08:46.116Z,5.70
2019-06-26T12:11:21.338Z,5.42
2019-06-26T12:13:46.349Z,5.40
2019-06-26T12:16:11.390Z,5.15
2019-06-26T12:18:36.406Z,4.85
2019-06-26T12:21:01.412Z,5.03
2019-06-26T12:23:26.455Z,5.55
2019-06-26T12:25:51.598Z,5.35
2019-06-26T12:28:16.489Z,5.80
2019-06-26T12:30:41.588Z,5.37
2019-06-26T12:33:06.687Z,5.65
2019-06-26T12:35:31.786Z,5.42
2019-06-26T12:37:56.799Z,5.67
2019-06-26T12:40:21.831Z,5.30
2019-06-26T12:42:46.851Z,6.08
2019-06-26T12:45:12.357Z,5.30
2019-06-26T12:47:37.390Z,5.55
2019-06-26T12:50:02.914Z,5.95
2019-06-26T12:52:27.954Z,5.47
2019-06-26T12:54:52.926Z,5.62
2019-06-26T12:57:17.897Z,5.28
2019-06-26T12:59:56.935Z,5.45
2019-06-26T13:02:10.678Z,5.60
2019-06-26T13:04:35.554Z,5.70
2019-06-26T13:07:00.514Z,5.00
2019-06-26T13:09:25.493Z,5.80
2019-06-26T13:11:50.453Z,6.10
2019-06-26T13:14:15.534Z,5.90
2019-06-26T13:16:40.562Z,5.62
2019-06-26T13:19:05.622Z,5.62
2019-06-26T13:21:30.623Z,5.70
2019-06-26T13:23:55.642Z,6.03
2019-06-26T13:26:21.103Z,5.78
2019-06-26T13:28:47.615Z,6.15
2019-06-26T13:31:12.634Z,5.47
2019-06-26T13:33:37.642Z,6.40
2019-06-26T13:36:02.672Z,5.85
2019-06-26T13:38:27.706Z,6.08
2019-06-26T13:40:52.783Z,5.78
2019-06-26T13:43:17.822Z,6.30
2019-06-26T13:45:43.024Z,5.90
2019-06-26T13:48:08.002Z,6.12
2019-06-26T13:50:33.859Z,6.10
2019-06-26T13:52:58.771Z,6.15
2019-06-26T13:55:23.802Z,6.47
2019-06-26T13:57:48.846Z,6.15
2019-06-26T14:00:14.234Z,6.85
2019-06-26T14:02:39.315Z,6.42
2019-06-26T14:05:04.562Z,6.20
2019-06-26T14:07:29.471Z,6.30
2019-06-26T14:09:54.436Z,6.05
2019-06-26T14:12:19.583Z,6.87
2019-06-26T14:14:56.678Z,6.30
2019-06-26T14:17:11.058Z,6.33
2019-06-26T14:19:36.107Z,6.30
2019-06-26T14:22:01.046Z,6.45
2019-06-26T14:24:26.175Z,6.25
2019-06-26T14:26:51.218Z,5.87
2019-06-26T14:29:20.796Z,5.92
2019-06-26T14:31:43.040Z,5.65
2019-06-26T14:34:07.990Z,5.22
2019-06-26T14:36:33.075Z,6.00
2019-06-26T14:38:58.103Z,6.15
2019-06-26T14:41:22.987Z,6.55
2019-06-26T14:43:48.014Z,5.85
2019-06-26T14:46:15.234Z,5.50
2019-06-26T14:48:40.410Z,5.37
2019-06-26T14:51:05.491Z,5.80
2019-06-26T14:53:30.431Z,5.53
2019-06-26T14:55:55.495Z,5.53
2019-06-26T14:58:20.450Z,5.53
2019-06-26T15:00:45.454Z,6.08
2019-06-26T15:03:10.415Z,5.40
2019-06-26T15:05:35.458Z,5.60
2019-06-26T15:08:00.579Z,5.62
2019-06-26T15:10:25.608Z,5.30
2019-06-26T15:12:50.615Z,5.12
2019-06-26T15:15:15.673Z,5.95
2019-06-26T15:17:40.705Z,5.72
2019-06-26T15:20:06.078Z,5.40
2019-06-26T15:22:31.117Z,5.10
2019-06-26T15:24:56.260Z,5.40
2019-06-26T15:27:21.215Z,5.20
2019-06-26T15:29:46.240Z,5.15
2019-06-26T15:32:11.462Z,5.17
2019-06-26T15:34:36.445Z,5.15
2019-06-26T15:37:01.495Z,5.05
2019-06-26T15:39:26.403Z,5.50
2019-06-26T15:41:51.435Z,5.45
2019-06-26T15:44:16.399Z,5.60
2019-06-26T15:46:41.388Z,4.92
2019-06-26T15:49:06.698Z,5.20
2019-06-26T15:51:31.780Z,4.90
2019-06-26T15:53:59.925Z,5.00
2019-06-26T15:56:27.237Z,5.00
2019-06-26T15:58:52.244Z,5.35
2019-06-26T16:01:17.880Z,5.10
2019-06-26T16:03:42.911Z,5.30
2019-06-26T16:06:07.961Z,4.92
2019-06-26T16:08:34.942Z,4.95
2019-06-26T16:11:00.092Z,4.87
2019-06-26T16:13:24.975Z,4.87
2019-06-26T16:15:50.025Z,4.80
2019-06-26T16:18:29.368Z,4.78
2019-06-26T16:20:54.607Z,4.40
2019-06-26T16:23:19.567Z,5.00
2019-06-26T16:25:44.563Z,4.92
2019-06-26T16:28:09.514Z,4.87
2019-06-26T16:30:34.552Z,4.25
2019-06-26T16:32:59.636Z,4.50
2019-06-26T16:35:24.728Z,4.87
2019-06-26T16:37:49.644Z,4.78
2019-06-26T16:40:15.568Z,4.80
2019-06-26T16:42:40.543Z,4.53
2019-06-26T16:45:06.333Z,4.50
2019-06-26T16:47:31.475Z,5.10
2019-06-26T16:49:56.467Z,4.42
2019-06-26T16:52:21.516Z,4.67
2019-06-26T16:54:46.411Z,4.80
2019-06-26T16:57:11.516Z,5.65
2019-06-26T16:59:36.482Z,4.70
2019-06-26T17:02:01.542Z,4.70
2019-06-26T17:04:26.607Z,4.40
2019-06-26T17:06:51.646Z,4.40
2019-06-26T17:09:16.670Z,4.55
2019-06-26T17:11:41.731Z,3.95
2019-06-26T17:14:06.860Z,4.08
2019-06-26T17:16:32.099Z,4.00
2019-06-26T17:18:57.136Z,3.77
2019-06-26T17:21:22.175Z,3.58
2019-06-26T17:23:47.072Z,3.80
2019-06-26T17:26:12.031Z,3.22
2019-06-26T17:28:37.159Z,3.30
2019-06-26T17:31:02.242Z,3.37
2019-06-26T17:33:27.377Z,3.00
2019-06-26T17:35:52.373Z,2.98
2019-06-26T17:38:17.339Z,2.87
2019-06-26T17:40:42.503Z,2.70
2019-06-26T17:43:12.336Z,2.25
2019-06-26T17:45:34.443Z,2.35
2019-06-26T17:47:59.412Z,2.45
2019-06-26T17:50:24.448Z,2.77
2019-06-26T17:52:49.515Z,2.52
2019-06-26T17:55:14.678Z,2.40
2019-06-26T17:57:39.643Z,2.40
2019-06-26T18:00:07.131Z,2.58
2019-06-26T18:02:32.139Z,2.47
2019-06-26T18:04:57.157Z,2.70
2019-06-26T18:07:22.154Z,2.90
2019-06-26T18:09:47.188Z,2.90
2019-06-26T18:12:12.151Z,3.15
2019-06-26T18:14:38.079Z,3.60
2019-06-26T18:17:03.322Z,4.50
2019-06-26T18:19:28.292Z,5.45
2019-06-26T18:21:53.262Z,5.28
2019-06-26T18:24:18.376Z,5.42
2019-06-26T18:26:43.411Z,5.22
2019-06-26T18:29:09.432Z,5.53
2019-06-26T18:31:34.534Z,4.00
2019-06-26T18:33:59.555Z,3.77
2019-06-26T18:36:27.403Z,3.85
2019-06-26T18:38:52.471Z,3.08
2019-06-26T18:41:18.787Z,3.58
2019-06-26T18:43:43.744Z,3.70
2019-06-26T18:46:08.795Z,3.90
2019-06-26T18:48:33.768Z,3.75
2019-06-26T18:50:58.735Z,3.70
2019-06-26T18:53:23.899Z,5.05
2019-06-26T18:55:48.944Z,4.97
2019-06-26T18:58:13.858Z,4.72
2019-06-26T19:00:39.005Z,5.87
2019-06-26T19:03:04.091Z,5.50
2019-06-26T19:05:29.064Z,6.42
2019-06-26T19:07:54.123Z,4.60
2019-06-26T19:10:19.160Z,4.10
2019-06-26T19:12:44.256Z,3.87
2019-06-26T19:15:09.539Z,4.20
2019-06-26T19:17:34.587Z,4.08
2019-06-26T19:19:59.655Z,4.45
2019-06-26T19:22:24.687Z,4.37
2019-06-26T19:24:49.788Z,4.35
2019-06-26T19:27:14.828Z,4.90
2019-06-26T19:29:40.275Z,4.35
2019-06-26T19:32:05.308Z,4.50
2019-06-26T19:34:30.496Z,4.53
2019-06-26T19:36:56.774Z,4.72
2019-06-26T19:39:21.926Z,6.70
2019-06-26T19:41:47.011Z,7.85
2019-06-26T19:44:11.995Z,5.08
2019-06-26T19:46:37.120Z,6.30
2019-06-26T19:49:02.176Z,6.62
2019-06-26T19:51:27.248Z,6.75
2019-06-26T19:53:52.234Z,4.78
2019-06-26T19:56:20.103Z,5.22
2019-06-26T19:58:43.839Z,6.08
2019-06-26T20:01:08.816Z,5.12
2019-06-26T20:03:33.855Z,5.28
2019-06-26T20:05:58.918Z,6.03
2019-06-26T20:08:23.842Z,5.08
2019-06-26T20:10:48.956Z,6.83
2019-06-26T20:13:13.844Z,6.20
2019-06-26T20:15:38.983Z,4.87
2019-06-26T20:18:04.475Z,4.00
2019-06-26T20:20:30.564Z,4.22
2019-06-26T20:22:56.157Z,4.10
2019-06-26T20:25:21.443Z,3.87
2019-06-26T20:27:46.489Z,3.87
2019-06-26T20:30:13.291Z,4.33
2019-06-26T20:32:38.533Z,4.33
2019-06-26T20:35:03.893Z,4.20
2019-06-26T20:37:28.944Z,4.22
2019-06-26T20:39:53.831Z,3.85
2019-06-26T20:42:18.831Z,4.60
2019-06-26T20:44:43.875Z,3.98
2019-06-26T20:47:08.839Z,4.12
2019-06-26T20:49:33.910Z,3.70
2019-06-26T20:51:59.967Z,3.80
2019-06-26T20:54:25.029Z,3.92
2019-06-26T20:56:49.975Z,3.83
2019-06-26T20:59:15.180Z,4.05
2019-06-26T21:01:40.260Z,4.33
2019-06-26T21:04:05.239Z,4.00
2019-06-26T21:06:30.235Z,4.40
2019-06-26T21:08:55.179Z,3.90
2019-06-26T21:11:21.017Z,3.85
2019-06-26T21:13:45.923Z,4.10
2019-06-26T21:16:10.875Z,4.33
2019-06-26T21:18:35.872Z,3.75
2019-06-26T21:21:00.829Z,3.27
2019-06-26T21:23:25.712Z,3.42
2019-06-26T21:25:50.754Z,3.37
2019-06-26T21:28:16.778Z,3.27
2019-06-26T21:30:41.731Z,3.40
2019-06-26T21:33:06.703Z,3.22
2019-06-26T21:35:31.743Z,3.47
2019-06-26T21:37:56.927Z,3.37
2019-06-26T21:40:21.882Z,3.20
2019-06-26T21:42:46.923Z,3.10
2019-06-26T21:45:11.967Z,2.90
2019-06-26T21:47:36.931Z,2.40
2019-06-26T21:50:01.993Z,2.15
2019-06-26T21:52:26.951Z,2.47
2019-06-26T21:54:51.907Z,2.62
2019-06-26T21:57:34.617Z,2.42
2019-06-26T22:00:18.758Z,2.42
2019-06-26T22:03:01.496Z,2.50
2019-06-26T22:05:28.243Z,2.42
2019-06-26T22:08:09.872Z,2.42
2019-06-26T22:10:36.741Z,2.83
2019-06-26T22:13:01.703Z,2.40
2019-06-26T22:15:26.965Z,2.50
2019-06-26T22:17:52.156Z,2.40
2019-06-26T22:20:17.427Z,2.20
2019-06-26T22:22:42.463Z,2.40
2019-06-26T22:25:07.938Z,2.83
2019-06-26T22:27:32.921Z,2.45
2019-06-26T22:29:57.975Z,2.58
2019-06-26T22:32:23.018Z,2.55
2019-06-26T22:34:48.239Z,2.50
2019-06-26T22:37:14.627Z,2.70
2019-06-26T22:39:39.597Z,2.60
2019-06-26T22:42:04.682Z,2.65
2019-06-26T22:44:29.723Z,2.80
2019-06-26T22:46:54.782Z,2.67
2019-06-26T22:49:19.763Z,2.95
2019-06-26T22:51:44.807Z,3.00
2019-06-26T22:54:09.949Z,2.60
2019-06-26T22:56:35.027Z,2.65
2019-06-26T22:59:00.991Z,2.98
2019-06-26T23:01:26.028Z,2.65
2019-06-26T23:03:50.991Z,2.92
2019-06-26T23:06:15.995Z,2.83
2019-06-26T23:08:40.887Z,2.87
2019-06-26T23:11:05.999Z,2.90
2019-06-26T23:13:31.085Z,3.00
2019-06-26T23:15:56.035Z,3.20
2019-06-26T23:18:21.450Z,3.10
2019-06-26T23:20:46.996Z,3.35
2019-06-26T23:23:12.116Z,3.25
2019-06-26T23:25:37.163Z,3.00
2019-06-26T23:28:02.040Z,3.30
2019-06-26T23:30:27.088Z,3.37
2019-06-26T23:32:51.971Z,3.08
2019-06-26T23:35:17.011Z,3.05
2019-06-26T23:37:42.232Z,3.00
2019-06-26T23:40:07.311Z,3.33
2019-06-26T23:42:32.291Z,3.77
2019-06-26T23:44:57.245Z,3.90
2019-06-26T23:47:22.198Z,3.47
2019-06-26T23:49:47.171Z,3.85
2019-06-26T23:52:12.416Z,4.17
2019-06-26T23:54:38.380Z,4.35
2019-06-26T23:57:03.428Z,4.05
2019-06-26T23:59:28.456Z,4.03
